Time;durP1;ratioP1;P1;durP2;ratioP2;P2;SDS_P1;SDS_P2;PMS_P1;PMS_P2;Temp;Humidity;BMP_temperature;BMP_pressure;BME280_temperature;BME280_humidity;BME280_pressure;Samples;Min_cycle;Max_cycle;Signal;HPM_P1;HPM_P2
2023/10/26 00:00:40;;;;;;;2.30;1.20;;;;;12.30;94510.00;;;;8465613;28;20195;-65
2023/10/26 00:04:44;;;;;;;1.75;0.95;;;;;12.30;94514.00;;;;8466242;28;20237;-65
2023/10/26 00:08:49;;;;;;;1.95;1.02;;;;;12.20;94509.00;;;;8465460;28;20221;-65
2023/10/26 00:12:52;;;;;;;1.95;1.10;;;;;12.20;94509.00;;;;8465158;28;20307;-65
2023/10/26 00:16:56;;;;;;;1.48;1.08;;;;;12.20;94512.00;;;;8466014;28;20229;-65
2023/10/26 00:21:01;;;;;;;1.10;1.10;;;;;12.10;94526.00;;;;8464832;28;20194;-65
2023/10/26 00:25:06;;;;;;;1.73;1.02;;;;;12.00;94520.00;;;;8465744;28;20194;-65
2023/10/26 00:29:10;;;;;;;2.25;1.20;;;;;11.90;94530.00;;;;8465132;28;20312;-65
2023/10/26 00:33:14;;;;;;;2.45;1.10;;;;;11.80;94512.00;;;;8464597;28;20290;-65
2023/10/26 00:37:18;;;;;;;2.08;1.05;;;;;11.80;94514.00;;;;8464899;28;20269;-65
2023/10/26 00:41:21;;;;;;;2.28;1.60;;;;;11.80;94518.00;;;;8464571;28;20521;-65
2023/10/26 00:45:24;;;;;;;1.52;1.08;;;;;11.70;94513.00;;;;8465029;28;20236;-65
2023/10/26 00:49:28;;;;;;;1.52;1.42;;;;;11.60;94516.00;;;;8462841;28;20217;-65
2023/10/26 00:53:32;;;;;;;7.00;1.30;;;;;11.70;94517.00;;;;8464217;28;20229;-65
2023/10/26 00:57:36;;;;;;;1.13;1.00;;;;;11.70;94517.00;;;;8464336;28;20251;-65
2023/10/26 01:01:39;;;;;;;0.90;0.90;;;;;11.80;94528.00;;;;8462721;28;20247;-65
2023/10/26 01:05:44;;;;;;;1.10;1.00;;;;;11.80;94526.00;;;;8463847;28;20201;-65
2023/10/26 01:09:48;;;;;;;2.35;1.30;;;;;11.90;94534.00;;;;8464753;28;20550;-65
2023/10/26 01:13:51;;;;;;;2.38;1.25;;;;;11.90;94535.00;;;;8468450;28;20655;-66
2023/10/26 01:17:54;;;;;;;1.02;1.00;;;;;11.90;94543.00;;;;8470284;28;20301;-65
2023/10/26 01:21:58;;;;;;;2.63;0.93;;;;;11.90;94534.00;;;;8471605;28;20504;-65
2023/10/26 01:26:02;;;;;;;1.00;1.00;;;;;11.90;94530.00;;;;8470874;28;20637;-66
2023/10/26 01:30:06;;;;;;;2.45;2.17;;;;;11.90;94534.00;;;;8471606;28;20299;-66
2023/10/26 01:34:09;;;;;;;3.15;1.33;;;;;11.90;94537.00;;;;8468770;28;20295;-65
2023/10/26 01:38:14;;;;;;;1.15;1.15;;;;;11.90;94530.00;;;;8469958;28;20192;-66
2023/10/26 01:42:17;;;;;;;1.67;1.00;;;;;11.90;94539.00;;;;8470055;28;20179;-66
2023/10/26 01:46:20;;;;;;;0.95;0.95;;;;;11.90;94529.00;;;;8470204;28;20194;-66
2023/10/26 01:50:24;;;;;;;3.45;1.30;;;;;11.90;94527.00;;;;8469952;28;20278;-66
2023/10/26 01:54:28;;;;;;;3.83;1.50;;;;;11.90;94526.00;;;;8469667;28;20279;-66
2023/10/26 01:58:31;;;;;;;2.45;1.38;;;;;12.00;94531.00;;;;8470396;28;20610;-66
2023/10/26 02:02:34;;;;;;;1.27;1.17;;;;;12.00;94524.00;;;;8470106;28;20222;-66
2023/10/26 02:06:38;;;;;;;2.38;1.40;;;;;12.00;94523.00;;;;8469014;28;20193;-66
2023/10/26 02:10:42;;;;;;;2.72;1.27;;;;;12.00;94517.00;;;;8469446;28;20228;-65
2023/10/26 02:14:48;;;;;;;1.63;1.40;;;;;12.00;94513.00;;;;8468557;28;20196;-65
2023/10/26 02:18:51;;;;;;;1.50;1.40;;;;;12.00;94523.00;;;;8469544;28;20619;-65
2023/10/26 02:22:54;;;;;;;2.53;1.60;;;;;12.00;94513.00;;;;8470320;28;20205;-65
2023/10/26 02:26:59;;;;;;;1.30;1.20;;;;;12.00;94517.00;;;;8467663;28;20198;-65
2023/10/26 02:31:02;;;;;;;1.20;1.20;;;;;11.90;94520.00;;;;8467648;28;20531;-65
2023/10/26 02:35:06;;;;;;;3.03;1.50;;;;;11.90;94516.00;;;;8467140;28;20230;-65
2023/10/26 02:39:09;;;;;;;1.30;1.20;;;;;11.80;94515.00;;;;8466101;28;20659;-65
2023/10/26 02:43:14;;;;;;;1.85;1.10;;;;;11.80;94510.00;;;;8467032;28;20509;-65
2023/10/26 02:47:17;;;;;;;3.10;1.40;;;;;11.70;94515.00;;;;8466180;28;20193;-65
2023/10/26 02:51:20;;;;;;;1.15;1.15;;;;;11.80;94517.00;;;;8468955;28;20575;-65
2023/10/26 02:55:25;;;;;;;1.20;1.20;;;;;11.80;94516.00;;;;8467234;28;20213;-65
2023/10/26 02:59:30;;;;;;;2.92;1.58;;;;;11.80;94507.00;;;;8467037;28;20289;-65
2023/10/26 03:03:33;;;;;;;1.65;1.23;;;;;11.80;94529.00;;;;8451817;22;20358;-64
2023/10/26 03:07:36;;;;;;;3.20;1.25;;;;;11.80;94524.00;;;;8417256;28;20197;-64
2023/10/26 03:11:39;;;;;;;1.10;1.05;;;;;11.80;94512.00;;;;8420574;28;20228;-63
2023/10/26 03:15:44;;;;;;;1.10;1.10;;;;;11.80;94520.00;;;;8424713;28;20715;-66
2023/10/26 03:19:47;;;;;;;3.10;1.17;;;;;11.90;94517.00;;;;8419179;28;20654;-63
2023/10/26 03:23:52;;;;;;;1.13;1.10;;;;;11.90;94527.00;;;;8424929;28;20655;-64
2023/10/26 03:27:55;;;;;;;3.65;1.23;;;;;11.90;94525.00;;;;8423217;28;20859;-64
2023/10/26 03:32:00;;;;;;;1.10;1.10;;;;;11.80;94523.00;;;;8429911;28;20229;-64
2023/10/26 03:36:03;;;;;;;1.10;1.10;;;;;11.90;94524.00;;;;8434524;28;20204;-64
2023/10/26 03:40:07;;;;;;;1.30;1.20;;;;;11.80;94525.00;;;;8433700;28;20203;-64
2023/10/26 03:44:11;;;;;;;1.10;1.00;;;;;11.80;94517.00;;;;8431665;28;20215;-64
2023/10/26 03:48:15;;;;;;;1.00;1.00;;;;;11.80;94513.00;;;;8433693;28;20227;-64
2023/10/26 03:52:18;;;;;;;1.10;1.10;;;;;11.80;94518.00;;;;8436992;28;20230;-64
2023/10/26 03:56:22;;;;;;;1.10;1.10;;;;;11.80;94524.00;;;;8432401;28;20781;-64
2023/10/26 04:00:26;;;;;;;2.35;1.10;;;;;11.80;94520.00;;;;8418954;28;20206;-64
2023/10/26 04:04:31;;;;;;;1.40;1.20;;;;;11.80;94511.00;;;;8414664;28;20233;-64
2023/10/26 04:08:36;;;;;;;2.58;1.20;;;;;11.80;94509.00;;;;8415084;28;20213;-64
2023/10/26 04:12:39;;;;;;;1.75;1.10;;;;;11.80;94512.00;;;;8398743;28;20227;-64
2023/10/26 04:16:47;;;;;;;1.50;1.35;;;;;11.80;94512.00;;;;8411195;28;20249;-63
2023/10/26 04:20:51;;;;;;;3.42;1.00;;;;;11.80;94506.00;;;;8408228;28;21975;-64
2023/10/26 04:24:55;;;;;;;1.95;1.30;;;;;11.80;94500.00;;;;8408230;28;21009;-64
2023/10/26 04:28:58;;;;;;;1.10;1.10;;;;;11.80;94504.00;;;;8420043;28;20966;-65
2023/10/26 04:33:01;;;;;;;2.97;1.10;;;;;11.80;94497.00;;;;8411895;28;20228;-65
2023/10/26 04:37:06;;;;;;;1.65;1.08;;;;;11.80;94495.00;;;;8407411;28;20610;-64
2023/10/26 04:41:09;;;;;;;2.60;1.10;;;;;11.80;94495.00;;;;8413099;28;20685;-64
2023/10/26 04:45:12;;;;;;;2.10;1.10;;;;;11.80;94493.00;;;;8411935;28;20199;-65
2023/10/26 04:49:15;;;;;;;5.28;1.30;;;;;11.90;94486.00;;;;8411506;28;20196;-65
2023/10/26 04:53:20;;;;;;;2.53;1.33;;;;;11.90;94485.00;;;;8408715;28;20725;-64
2023/10/26 04:57:23;;;;;;;1.38;1.30;;;;;11.90;94490.00;;;;8408405;28;20357;-64
2023/10/26 05:01:26;;;;;;;1.38;1.25;;;;;11.90;94470.00;;;;8412990;28;20252;-64
2023/10/26 05:05:29;;;;;;;1.25;1.20;;;;;11.80;94472.00;;;;8403511;28;20210;-65
2023/10/26 05:09:34;;;;;;;1.77;1.30;;;;;11.80;94479.00;;;;8403149;28;20292;-65
2023/10/26 05:13:38;;;;;;;1.10;0.90;;;;;11.80;94475.00;;;;8407333;28;20884;-65
2023/10/26 05:17:41;;;;;;;1.23;1.13;;;;;11.80;94473.00;;;;8395573;28;20202;-65
2023/10/26 05:21:44;;;;;;;2.92;1.10;;;;;11.80;94469.00;;;;8388211;28;20214;-65
2023/10/26 05:25:49;;;;;;;1.20;1.10;;;;;11.80;94488.00;;;;8410853;28;20196;-65
2023/10/26 05:29:53;;;;;;;2.67;0.93;;;;;11.80;94493.00;;;;8408541;28;20191;-65
2023/10/26 05:33:58;;;;;;;1.20;1.10;;;;;11.90;94493.00;;;;8411334;28;20250;-67
2023/10/26 05:38:03;;;;;;;1.05;1.05;;;;;11.90;94491.00;;;;8408897;28;20300;-64
2023/10/26 05:42:08;;;;;;;1.48;1.20;;;;;11.90;94496.00;;;;8405865;28;20360;-65
2023/10/26 05:46:11;;;;;;;1.20;1.10;;;;;11.90;94493.00;;;;8409445;28;20808;-64
2023/10/26 05:50:14;;;;;;;1.55;1.02;;;;;12.00;94485.00;;;;8414014;28;20293;-64
2023/10/26 05:54:20;;;;;;;1.27;1.20;;;;;12.00;94480.00;;;;8408939;28;20231;-65
2023/10/26 05:58:25;;;;;;;0.90;0.90;;;;;12.00;94484.00;;;;8415747;28;20730;-65
2023/10/26 06:02:29;;;;;;;1.95;1.10;;;;;12.00;94485.00;;;;8423285;28;20308;-65
2023/10/26 06:06:37;;;;;;;0.90;0.90;;;;;12.10;94492.00;;;;8416424;28;20205;-65
2023/10/26 06:10:43;;;;;;;1.77;1.00;;;;;12.10;94491.00;;;;8405925;28;20195;-65
2023/10/26 06:14:50;;;;;;;1.30;1.10;;;;;12.10;94498.00;;;;8419923;28;20206;-65
2023/10/26 06:18:54;;;;;;;1.20;1.10;;;;;12.10;94503.00;;;;8412877;28;20715;-65
2023/10/26 06:22:57;;;;;;;4.75;1.38;;;;;12.10;94512.00;;;;8415668;28;20202;-65
2023/10/26 06:27:00;;;;;;;1.30;1.13;;;;;12.20;94512.00;;;;8407239;28;20900;-65
2023/10/26 06:31:11;;;;;;;1.33;1.20;;;;;12.20;94519.00;;;;8415107;28;20230;-65
2023/10/26 06:35:15;;;;;;;1.85;1.38;;;;;12.20;94518.00;;;;8418431;28;20235;-65
2023/10/26 06:39:18;;;;;;;3.58;1.13;;;;;12.30;94521.00;;;;8417263;28;20207;-65
2023/10/26 06:43:21;;;;;;;1.42;1.02;;;;;12.30;94525.00;;;;8411119;28;20232;-65
2023/10/26 06:47:26;;;;;;;1.15;1.15;;;;;12.30;94542.00;;;;8415461;28;20217;-65
2023/10/26 06:51:30;;;;;;;1.10;1.10;;;;;12.30;94533.00;;;;8419962;28;20310;-65
2023/10/26 06:55:33;;;;;;;1.65;1.10;;;;;12.30;94535.00;;;;8416498;28;20199;-65
2023/10/26 06:59:36;;;;;;;2.60;1.30;;;;;12.40;94534.00;;;;8412313;28;20603;-64
2023/10/26 07:03:41;;;;;;;1.60;1.10;;;;;12.40;94524.00;;;;8410515;28;20244;-65
2023/10/26 07:07:44;;;;;;;1.13;1.10;;;;;12.40;94532.00;;;;8411080;28;20195;-65
2023/10/26 07:11:47;;;;;;;1.42;1.10;;;;;12.40;94538.00;;;;8411182;28;20238;-65
2023/10/26 07:15:51;;;;;;;1.38;1.13;;;;;12.50;94526.00;;;;8418511;28;20215;-65
2023/10/26 07:19:55;;;;;;;0.80;0.80;;;;;12.50;94529.00;;;;8410168;28;20203;-65
2023/10/26 07:23:58;;;;;;;1.10;1.10;;;;;12.50;94529.00;;;;8410388;28;20203;-65
2023/10/26 07:28:05;;;;;;;3.08;1.33;;;;;12.50;94543.00;;;;8415780;28;20231;-65
2023/10/26 07:32:08;;;;;;;1.27;1.10;;;;;12.60;94532.00;;;;8416172;28;21003;-65
2023/10/26 07:36:13;;;;;;;1.00;1.00;;;;;12.70;94535.00;;;;8414623;28;21050;-65
2023/10/26 07:40:19;;;;;;;2.15;1.20;;;;;12.80;94540.00;;;;8419047;28;20277;-65
2023/10/26 07:44:34;;;;;;;1.65;1.10;;;;;12.90;94536.00;;;;8415572;28;20194;-65
2023/10/26 07:48:37;;;;;;;1.00;1.00;;;;;13.00;94543.00;;;;8418614;28;21226;-65
2023/10/26 07:52:42;;;;;;;3.40;1.10;;;;;13.10;94542.00;;;;8415598;28;20238;-65
2023/10/26 07:56:45;;;;;;;1.42;1.27;;;;;13.30;94546.00;;;;8409529;28;20195;-65
2023/10/26 08:00:48;;;;;;;2.15;1.20;;;;;13.50;94541.00;;;;8419984;28;20881;-65
2023/10/26 08:04:54;;;;;;;2.30;1.15;;;;;13.60;94544.00;;;;8408203;28;20305;-66
2023/10/26 08:08:58;;;;;;;1.38;1.10;;;;;13.60;94543.00;;;;8412773;28;20203;-65
2023/10/26 08:13:05;;;;;;;0.90;0.90;;;;;13.60;94542.00;;;;8407143;28;20691;-65
2023/10/26 08:17:08;;;;;;;1.08;1.08;;;;;13.70;94546.00;;;;8412589;28;20293;-65
2023/10/26 08:21:11;;;;;;;3.10;1.20;;;;;13.80;94547.00;;;;8408261;28;20191;-65
2023/10/26 08:25:17;;;;;;;1.40;1.10;;;;;13.90;94555.00;;;;8410909;28;20207;-66
2023/10/26 08:29:28;;;;;;;1.95;1.00;;;;;14.00;94561.00;;;;8405362;28;20284;-65
2023/10/26 08:33:33;;;;;;;2.95;1.08;;;;;14.10;94558.00;;;;8417317;28;20301;-65
2023/10/26 08:37:36;;;;;;;1.30;1.10;;;;;14.20;94548.00;;;;8416601;28;20208;-65
2023/10/26 08:41:47;;;;;;;4.32;1.10;;;;;14.00;94531.00;;;;8405563;28;20791;-65
2023/10/26 08:45:50;;;;;;;1.23;1.13;;;;;13.90;94540.00;;;;8411071;28;20282;-65
2023/10/26 08:49:57;;;;;;;1.00;1.00;;;;;13.80;94548.00;;;;8411873;28;20248;-64
2023/10/26 08:54:17;;;;;;;2.28;1.10;;;;;13.80;94537.00;;;;8415247;28;20227;-68
2023/10/26 08:58:22;;;;;;;4.28;0.98;;;;;13.80;94523.00;;;;8410356;28;20205;-65
2023/10/26 09:02:25;;;;;;;1.13;1.13;;;;;13.90;94523.00;;;;8409824;28;20228;-65
2023/10/26 09:06:43;;;;;;;1.20;1.00;;;;;14.00;94514.00;;;;8410123;28;20191;-65
2023/10/26 09:10:47;;;;;;;1.00;1.00;;;;;14.00;94511.00;;;;8415027;28;20278;-65
2023/10/26 09:14:59;;;;;;;5.10;1.10;;;;;14.10;94515.00;;;;8407499;28;20235;-66
2023/10/26 09:19:03;;;;;;;1.23;1.05;;;;;14.20;94515.00;;;;8396884;28;20249;-66
2023/10/26 09:23:06;;;;;;;2.20;1.00;;;;;14.70;94512.00;;;;8405072;28;20629;-65
2023/10/26 09:27:18;;;;;;;1.05;1.00;;;;;15.00;94523.00;;;;8402425;28;20195;-65
2023/10/26 09:31:23;;;;;;;0.90;0.90;;;;;15.30;94526.00;;;;8414500;28;20191;-65
2023/10/26 09:35:28;;;;;;;1.00;0.90;;;;;15.40;94521.00;;;;8413059;28;20218;-65
2023/10/26 09:39:33;;;;;;;1.17;1.08;;;;;15.30;94539.00;;;;8423462;28;20212;-65
2023/10/26 09:43:36;;;;;;;1.00;1.00;;;;;15.30;94544.00;;;;8421767;28;20897;-65
2023/10/26 09:47:41;;;;;;;1.35;1.30;;;;;15.30;94537.00;;;;8404697;28;20208;-65
2023/10/26 09:51:45;;;;;;;1.75;1.30;;;;;15.40;94540.00;;;;8409093;28;20196;-66
2023/10/26 09:55:48;;;;;;;1.50;1.45;;;;;15.60;94543.00;;;;8418157;28;20230;-65
2023/10/26 09:59:53;;;;;;;1.23;1.15;;;;;15.60;94542.00;;;;8410638;28;20193;-65
2023/10/26 10:03:59;;;;;;;2.75;1.15;;;;;15.70;94568.00;;;;8417869;28;20259;-67
2023/10/26 10:08:02;;;;;;;1.30;1.27;;;;;15.90;94577.00;;;;8406823;28;20196;-66
2023/10/26 10:12:33;;;;;;;1.35;1.25;;;;;16.10;94568.00;;;;8407761;28;20183;-65
2023/10/26 10:16:52;;;;;;;1.35;0.98;;;;;16.10;94572.00;;;;8416973;28;20195;-66
2023/10/26 10:20:57;;;;;;;1.20;1.10;;;;;16.00;94574.00;;;;8410149;28;20200;-66
2023/10/26 10:25:01;;;;;;;1.40;1.00;;;;;16.00;94568.00;;;;8416431;28;20637;-66
2023/10/26 10:29:19;;;;;;;1.00;1.00;;;;;15.90;94578.00;;;;8413370;28;20218;-66
2023/10/26 10:33:23;;;;;;;3.70;0.90;;;;;15.90;94585.00;;;;8412228;28;20223;-66
2023/10/26 10:37:28;;;;;;;1.30;1.30;;;;;15.70;94585.00;;;;8417540;28;20637;-66
2023/10/26 10:41:36;;;;;;;2.63;1.50;;;;;15.50;94574.00;;;;8409815;28;20283;-66
2023/10/26 10:45:39;;;;;;;1.95;1.20;;;;;15.20;94570.00;;;;8413653;28;20886;-65
2023/10/26 10:49:42;;;;;;;2.17;1.65;;;;;15.00;94562.00;;;;8416987;28;20207;-66
2023/10/26 10:53:51;;;;;;;3.30;1.67;;;;;14.60;94556.00;;;;8408309;28;20340;-65
2023/10/26 10:57:55;;;;;;;2.10;2.00;;;;;14.50;94554.00;;;;8414927;28;20191;-65
2023/10/26 11:02:09;;;;;;;4.05;1.95;;;;;14.60;94534.00;;;;8411361;28;20238;-64
2023/10/26 11:06:14;;;;;;;1.92;1.83;;;;;14.70;94520.00;;;;8408080;28;20449;-65
2023/10/26 11:10:19;;;;;;;2.55;2.35;;;;;14.70;94518.00;;;;8405759;28;20288;-65
2023/10/26 11:14:23;;;;;;;2.78;2.17;;;;;14.80;94530.00;;;;8406630;28;20307;-65
2023/10/26 11:18:27;;;;;;;2.60;2.50;;;;;14.80;94526.00;;;;8409669;28;20622;-65
2023/10/26 11:22:30;;;;;;;6.10;2.30;;;;;14.80;94535.00;;;;8413702;28;20192;-66
2023/10/26 11:26:36;;;;;;;2.60;2.42;;;;;14.70;94537.00;;;;8411298;28;20196;-66
2023/10/26 11:30:49;;;;;;;3.22;2.80;;;;;14.70;94542.00;;;;8411952;28;20195;-66
2023/10/26 11:35:08;;;;;;;619.80;321.58;;;;;14.60;94541.00;;;;8411978;28;20711;-66
2023/10/26 11:39:13;;;;;;;761.50;358.58;;;;;14.60;94534.00;;;;8405716;28;20207;-67
2023/10/26 11:43:31;;;;;;;359.40;245.85;;;;;14.40;94546.00;;;;8413342;28;20216;-67
2023/10/26 11:47:45;;;;;;;32.33;24.67;;;;;14.10;94548.00;;;;8412931;28;20218;-67
2023/10/26 11:51:48;;;;;;;10.02;8.00;;;;;13.80;94551.00;;;;8411839;28;20207;-65
2023/10/26 11:56:03;;;;;;;15.13;12.88;;;;;13.80;94535.00;;;;8413406;28;20227;-66
2023/10/26 12:00:13;;;;;;;292.40;213.95;;;;;13.80;94531.00;;;;8407321;28;20195;-66
2023/10/26 12:04:16;;;;;;;11.52;9.55;;;;;13.80;94545.00;;;;8407688;28;20270;-65
2023/10/26 12:08:19;;;;;;;25.45;22.52;;;;;13.70;94541.00;;;;8407948;28;20223;-64
2023/10/26 12:12:22;;;;;;;4.55;4.18;;;;;13.70;94536.00;;;;8410331;28;20205;-62
2023/10/26 12:16:27;;;;;;;5.82;3.50;;;;;13.60;94551.00;;;;8413064;28;20250;-62
2023/10/26 12:20:31;;;;;;;3.35;3.05;;;;;13.50;94549.00;;;;8412110;28;20259;-62
2023/10/26 12:24:36;;;;;;;8.40;7.53;;;;;13.40;94537.00;;;;8409715;28;20184;-63
2023/10/26 12:28:40;;;;;;;3.55;3.10;;;;;13.40;94523.00;;;;8413536;28;20195;-62
2023/10/26 12:32:44;;;;;;;4.57;4.22;;;;;13.40;94528.00;;;;8407827;28;20195;-63
2023/10/26 12:36:47;;;;;;;4.53;4.13;;;;;13.40;94512.00;;;;8412807;28;20230;-63
2023/10/26 12:40:51;;;;;;;4.15;3.10;;;;;13.50;94502.00;;;;8410136;28;20204;-63
2023/10/26 12:44:56;;;;;;;3.40;3.10;;;;;13.60;94499.00;;;;8409606;28;20207;-63
2023/10/26 12:49:02;;;;;;;4.25;3.80;;;;;13.70;94482.00;;;;8414105;28;20771;-63
2023/10/26 12:53:07;;;;;;;5.15;4.45;;;;;13.60;94489.00;;;;8409106;28;20236;-63
2023/10/26 12:57:12;;;;;;;4.82;3.28;;;;;13.70;94502.00;;;;8413146;28;20215;-63
2023/10/26 13:01:15;;;;;;;29.45;26.88;;;;;13.70;94510.00;;;;8385943;28;20188;-63
2023/10/26 13:05:20;;;;;;;6.95;5.68;;;;;13.70;94499.00;;;;8386531;28;20203;-63
2023/10/26 13:09:23;;;;;;;8.77;8.07;;;;;13.70;94514.00;;;;8403165;28;20195;-63
2023/10/26 13:13:28;;;;;;;7.28;6.57;;;;;13.70;94517.00;;;;8406719;28;20346;-64
2023/10/26 13:17:32;;;;;;;7.63;7.03;;;;;13.80;94511.00;;;;8404620;28;20219;-63
2023/10/26 13:21:37;;;;;;;5.05;4.55;;;;;13.70;94492.00;;;;8405795;28;20218;-64
2023/10/26 13:25:41;;;;;;;26.58;24.23;;;;;13.70;94501.00;;;;8408238;28;20721;-63
2023/10/26 13:29:44;;;;;;;8.45;7.82;;;;;13.80;94497.00;;;;8411187;28;20635;-64
2023/10/26 13:33:49;;;;;;;2.65;2.38;;;;;13.90;94480.00;;;;8403338;28;20230;-64
2023/10/26 13:37:54;;;;;;;3.45;2.20;;;;;14.00;94484.00;;;;8407117;28;20242;-64
2023/10/26 13:41:57;;;;;;;2.80;2.28;;;;;14.10;94485.00;;;;8400964;28;20203;-64
2023/10/26 13:46:00;;;;;;;2.47;1.90;;;;;14.00;94482.00;;;;8410045;28;20197;-64
2023/10/26 13:50:03;;;;;;;3.17;2.53;;;;;13.90;94483.00;;;;8405082;28;20269;-66
2023/10/26 13:54:08;;;;;;;5.00;3.25;;;;;13.90;94486.00;;;;8405200;28;20223;-64
2023/10/26 13:58:11;;;;;;;2.55;2.35;;;;;13.90;94479.00;;;;8402032;28;20258;-64
2023/10/26 14:02:14;;;;;;;3.00;2.75;;;;;14.00;94483.00;;;;8401403;28;20678;-64
2023/10/26 14:06:17;;;;;;;4.28;3.15;;;;;14.00;94483.00;;;;8404750;28;20988;-64
2023/10/26 14:10:22;;;;;;;3.50;2.70;;;;;14.00;94489.00;;;;8405843;28;20199;-64
2023/10/26 14:14:25;;;;;;;2.30;2.20;;;;;13.90;94491.00;;;;8408897;28;20226;-65
2023/10/26 14:18:28;;;;;;;3.72;2.10;;;;;13.80;94484.00;;;;8406446;28;20206;-65
2023/10/26 14:22:32;;;;;;;2.40;2.03;;;;;13.70;94480.00;;;;8413317;28;20278;-66
2023/10/26 14:26:36;;;;;;;2.38;2.22;;;;;13.60;94477.00;;;;8401692;28;20210;-65
2023/10/26 14:30:39;;;;;;;3.72;2.15;;;;;13.60;94479.00;;;;8411404;28;20206;-64
2023/10/26 14:34:43;;;;;;;2.50;2.20;;;;;13.60;94491.00;;;;8403654;28;20231;-64
2023/10/26 14:38:46;;;;;;;1.98;1.70;;;;;13.50;94478.00;;;;8419003;28;20596;-64
2023/10/26 14:42:51;;;;;;;2.35;2.10;;;;;13.50;94482.00;;;;8417325;28;20200;-64
2023/10/26 14:46:54;;;;;;;3.35;2.25;;;;;13.50;94485.00;;;;8404594;28;20538;-65
2023/10/26 14:51:01;;;;;;;2.00;1.90;;;;;13.40;94491.00;;;;8412617;28;20233;-66
2023/10/26 14:55:05;;;;;;;2.70;2.50;;;;;13.40;94459.00;;;;8408842;28;20684;-65
2023/10/26 14:59:11;;;;;;;2.60;2.40;;;;;13.50;94464.00;;;;8409742;28;20207;-64
2023/10/26 15:03:14;;;;;;;3.70;3.40;;;;;13.40;94463.00;;;;8401670;28;20589;-64
2023/10/26 15:07:19;;;;;;;4.38;2.42;;;;;13.30;94469.00;;;;8403240;28;20191;-64
2023/10/26 15:11:22;;;;;;;4.47;2.00;;;;;13.30;94462.00;;;;8407204;28;20563;-64
2023/10/26 15:15:28;;;;;;;3.45;2.22;;;;;13.20;94461.00;;;;8408270;28;20218;-63
2023/10/26 15:19:33;;;;;;;3.38;2.65;;;;;13.10;94463.00;;;;8401871;28;20278;-65
2023/10/26 15:23:36;;;;;;;4.28;2.40;;;;;13.10;94465.00;;;;8406083;28;20609;-64
2023/10/26 15:27:41;;;;;;;3.08;2.80;;;;;13.00;94460.00;;;;8410512;28;20282;-65
2023/10/26 15:31:47;;;;;;;2.30;2.20;;;;;13.00;94454.00;;;;8407829;28;20225;-64
2023/10/26 15:35:53;;;;;;;2.60;2.40;;;;;13.00;94445.00;;;;8402403;28;20885;-64
2023/10/26 15:39:57;;;;;;;2.70;2.50;;;;;12.90;94448.00;;;;8408847;28;20278;-64
2023/10/26 15:44:02;;;;;;;3.28;2.80;;;;;12.80;94436.00;;;;8410763;28;20214;-64
2023/10/26 15:48:07;;;;;;;3.40;3.10;;;;;12.70;94438.00;;;;8406394;28;20195;-63
2023/10/26 15:52:11;;;;;;;4.90;3.60;;;;;12.60;94422.00;;;;8411432;28;20229;-64
2023/10/26 15:56:15;;;;;;;4.82;3.88;;;;;12.50;94422.00;;;;8406245;28;20226;-64
2023/10/26 16:00:20;;;;;;;4.97;4.07;;;;;12.50;94416.00;;;;8407584;28;20209;-66
2023/10/26 16:04:26;;;;;;;4.93;3.97;;;;;12.50;94414.00;;;;8412198;28;20717;-64
2023/10/26 16:08:32;;;;;;;6.03;4.40;;;;;12.50;94415.00;;;;8411028;28;20542;-65
2023/10/26 16:12:35;;;;;;;4.65;4.18;;;;;12.50;94415.00;;;;8414620;28;20210;-64
2023/10/26 16:16:39;;;;;;;4.90;4.20;;;;;12.50;94420.00;;;;8413168;28;20221;-64
2023/10/26 16:20:43;;;;;;;6.60;4.10;;;;;12.40;94417.00;;;;8410711;28;20256;-65
2023/10/26 16:24:51;;;;;;;5.38;4.10;;;;;12.40;94421.00;;;;8414022;28;20290;-65
2023/10/26 16:28:57;;;;;;;6.40;4.55;;;;;12.40;94419.00;;;;8403958;28;20785;-64
2023/10/26 16:33:00;;;;;;;10.82;6.20;;;;;12.40;94415.00;;;;8409973;28;20274;-66
2023/10/26 16:37:05;;;;;;;10.65;7.13;;;;;12.40;94409.00;;;;8404648;28;20236;-65
2023/10/26 16:41:08;;;;;;;13.60;8.70;;;;;12.30;94415.00;;;;8411191;28;21011;-65
2023/10/26 16:45:15;;;;;;;16.05;9.55;;;;;12.30;94412.00;;;;8410176;28;20209;-64
2023/10/26 16:49:18;;;;;;;19.15;10.50;;;;;12.30;94420.00;;;;8406446;28;20207;-66
2023/10/26 16:53:24;;;;;;;19.83;10.98;;;;;12.40;94408.00;;;;8406449;28;20199;-64
2023/10/26 16:57:34;;;;;;;24.27;11.98;;;;;12.40;94417.00;;;;8408991;28;20215;-65
2023/10/26 17:01:37;;;;;;;24.50;12.07;;;;;12.40;94414.00;;;;8406662;28;20233;-65
2023/10/26 17:05:43;;;;;;;26.05;13.50;;;;;12.40;94417.00;;;;8408322;28;21078;-65
2023/10/26 17:09:51;;;;;;;32.85;13.63;;;;;12.40;94417.00;;;;8405683;28;20293;-64
2023/10/26 17:13:54;;;;;;;33.47;14.05;;;;;12.40;94409.00;;;;8404598;28;20237;-66
2023/10/26 17:17:57;;;;;;;33.78;14.98;;;;;12.40;94401.00;;;;8429189;28;20250;-63
2023/10/26 17:22:02;;;;;;;34.17;14.80;;;;;12.30;94389.00;;;;8431011;28;20326;-63
2023/10/26 17:26:07;;;;;;;34.05;14.27;;;;;12.30;94389.00;;;;8431158;28;20198;-63
2023/10/26 17:30:11;;;;;;;32.88;14.48;;;;;12.30;94406.00;;;;8429835;28;20636;-63
2023/10/26 17:34:14;;;;;;;37.92;15.45;;;;;12.30;94403.00;;;;8429141;28;20191;-61
2023/10/26 17:38:17;;;;;;;29.77;14.48;;;;;12.30;94399.00;;;;8430819;28;20218;-60
2023/10/26 17:42:21;;;;;;;34.30;14.23;;;;;12.40;94393.00;;;;8430633;28;20206;-61
2023/10/26 17:46:24;;;;;;;27.65;12.60;;;;;12.30;94389.00;;;;8430191;28;20198;-62
2023/10/26 17:50:28;;;;;;;29.50;13.43;;;;;12.30;94381.00;;;;8430833;28;20613;-62
2023/10/26 17:54:31;;;;;;;31.45;13.05;;;;;12.20;94390.00;;;;8432002;28;20202;-63
2023/10/26 17:58:36;;;;;;;31.05;12.75;;;;;12.20;94394.00;;;;8436414;28;20755;-62
2023/10/26 18:02:39;;;;;;;30.95;12.73;;;;;12.20;94393.00;;;;8436569;28;20261;-63
2023/10/26 18:06:43;;;;;;;33.83;13.52;;;;;12.20;94391.00;;;;8436410;28;20644;-62
2023/10/26 18:10:46;;;;;;;33.55;13.20;;;;;12.20;94394.00;;;;8436352;28;20202;-62
2023/10/26 18:14:50;;;;;;;38.47;14.50;;;;;12.20;94390.00;;;;8435291;28;20756;-62
2023/10/26 18:18:54;;;;;;;34.00;13.32;;;;;12.20;94398.00;;;;8435866;28;20254;-61
2023/10/26 18:22:57;;;;;;;33.13;14.02;;;;;12.20;94400.00;;;;8434312;28;20275;-60
2023/10/26 18:27:00;;;;;;;40.05;19.48;;;;;12.20;94406.00;;;;8433948;28;20719;-60
2023/10/26 18:31:08;;;;;;;31.85;14.38;;;;;12.30;94412.00;;;;8435335;28;20203;-60
2023/10/26 18:35:11;;;;;;;30.17;14.07;;;;;12.30;94408.00;;;;8435739;28;20285;-60
2023/10/26 18:39:15;;;;;;;31.58;14.35;;;;;12.30;94413.00;;;;8435537;28;20529;-60
2023/10/26 18:43:18;;;;;;;30.08;13.07;;;;;12.30;94411.00;;;;8435432;28;20198;-60
2023/10/26 18:47:22;;;;;;;25.25;10.73;;;;;12.30;94406.00;;;;8435171;28;20822;-61
2023/10/26 18:51:25;;;;;;;30.15;11.23;;;;;12.30;94413.00;;;;8435275;28;20209;-61
2023/10/26 18:55:34;;;;;;;30.38;13.70;;;;;12.30;94416.00;;;;8434955;28;20632;-61
2023/10/26 18:59:38;;;;;;;28.38;12.05;;;;;12.30;94409.00;;;;8433684;28;20183;-61
2023/10/26 19:03:43;;;;;;;31.05;11.55;;;;;12.40;94419.00;;;;8435681;28;20679;-60
2023/10/26 19:08:05;;;;;;;25.17;11.10;;;;;12.40;94408.00;;;;8434524;28;20211;-61
2023/10/26 19:12:08;;;;;;;24.50;10.65;;;;;12.40;94409.00;;;;8434386;28;20293;-64
2023/10/26 19:16:11;;;;;;;29.65;11.55;;;;;12.40;94411.00;;;;8434074;28;20226;-62
2023/10/26 19:20:17;;;;;;;22.17;10.00;;;;;12.40;94415.00;;;;8433975;28;20274;-62
2023/10/26 19:24:20;;;;;;;29.20;10.13;;;;;12.40;94419.00;;;;8433770;28;20545;-62
2023/10/26 19:28:23;;;;;;;26.15;10.23;;;;;12.40;94429.00;;;;8433641;28;20203;-63
2023/10/26 19:32:26;;;;;;;29.58;10.63;;;;;12.30;94437.00;;;;8432618;28;20242;-62
2023/10/26 19:36:31;;;;;;;29.75;10.60;;;;;12.30;94438.00;;;;8434074;28;20241;-62
2023/10/26 19:40:34;;;;;;;31.58;11.02;;;;;12.40;94436.00;;;;8434264;28;20191;-62
2023/10/26 19:44:37;;;;;;;22.77;10.15;;;;;12.40;94435.00;;;;8433646;28;20709;-62
2023/10/26 19:48:40;;;;;;;27.80;10.20;;;;;12.40;94421.00;;;;8432801;28;20187;-63
2023/10/26 19:52:46;;;;;;;39.13;13.23;;;;;12.50;94423.00;;;;8433701;28;20264;-63
2023/10/26 19:56:49;;;;;;;31.85;11.68;;;;;12.40;94410.00;;;;8430139;28;20738;-62
2023/10/26 20:00:52;;;;;;;24.27;10.27;;;;;12.40;94392.00;;;;8430763;28;20286;-63
2023/10/26 20:04:56;;;;;;;18.27;8.43;;;;;12.40;94387.00;;;;8432836;28;20222;-62
2023/10/26 20:09:00;;;;;;;21.30;8.73;;;;;12.40;94380.00;;;;8431743;28;20227;-64
2023/10/26 20:13:03;;;;;;;22.33;8.18;;;;;12.40;94380.00;;;;8432060;28;20195;-63
2023/10/26 20:17:08;;;;;;;21.60;9.07;;;;;12.40;94389.00;;;;8431692;28;20310;-62